Time;durP1;ratioP1;P1;durP2;ratioP2;P2;SDS_P1;SDS_P2;PMS_P1;PMS_P2;Temp;Humidity;BMP_temperature;BMP_pressure;BME280_temperature;BME280_humidity;BME280_pressure;Samples;Min_cycle;Max_cycle;Signal;HPM_P1;HPM_P2
2022/12/12 00:00:13;;;;;;;42.22;33.70;;;;;;;;;;5035966;28;20013;-80
2022/12/12 00:02:39;;;;;;;48.15;40.28;;;;;;;;;;5032173;28;20029;-77
2022/12/12 00:05:05;;;;;;;42.85;36.22;;;;;;;;;;5028739;28;20028;-78
2022/12/12 00:07:30;;;;;;;45.75;37.15;;;;;;;;;;5032037;28;20078;-77
2022/12/12 00:09:56;;;;;;;45.15;35.03;;;;;;;;;;5029797;28;20352;-78
2022/12/12 00:12:21;;;;;;;50.20;40.38;;;;;;;;;;5036620;28;20025;-78
2022/12/12 00:14:46;;;;;;;49.38;40.70;;;;;;;;;;5030716;28;20511;-78
2022/12/12 00:17:12;;;;;;;53.30;43.13;;;;;;;;;;5025470;28;20048;-78
2022/12/12 00:19:37;;;;;;;48.63;39.60;;;;;;;;;;5026977;28;20029;-79
2022/12/12 00:22:02;;;;;;;64.88;52.42;;;;;;;;;;5035082;28;20025;-79
2022/12/12 00:24:28;;;;;;;61.55;53.60;;;;;;;;;;5026573;28;20028;-82
2022/12/12 00:26:53;;;;;;;54.25;44.03;;;;;;;;;;5032502;28;20499;-78
2022/12/12 00:29:18;;;;;;;46.80;37.95;;;;;;;;;;5031520;28;20060;-77
2022/12/12 00:31:43;;;;;;;67.88;54.88;;;;;;;;;;5032948;28;20033;-78
2022/12/12 00:34:09;;;;;;;50.78;40.67;;;;;;;;;;5026688;28;20087;-77
2022/12/12 00:36:34;;;;;;;40.80;32.58;;;;;;;;;;5035317;28;20033;-76
2022/12/12 00:39:00;;;;;;;46.63;37.30;;;;;;;;;;5027884;28;20028;-77
2022/12/12 00:41:25;;;;;;;43.80;35.72;;;;;;;;;;5026233;28;20075;-77
2022/12/12 00:43:51;;;;;;;41.33;33.88;;;;;;;;;;5026457;28;20033;-79
2022/12/12 00:46:17;;;;;;;38.50;31.40;;;;;;;;;;5033166;28;20111;-78
2022/12/12 00:48:43;;;;;;;42.42;33.33;;;;;;;;;;5026980;28;20128;-79
2022/12/12 00:51:10;;;;;;;50.65;40.83;;;;;;;;;;5035212;28;20100;-76
2022/12/12 00:53:36;;;;;;;44.53;35.35;;;;;;;;;;5032647;28;20021;-77
2022/12/12 00:56:02;;;;;;;39.20;32.08;;;;;;;;;;5035463;28;20041;-77
2022/12/12 00:58:27;;;;;;;45.72;36.63;;;;;;;;;;5031508;28;20412;-77
2022/12/12 01:00:53;;;;;;;46.97;39.05;;;;;;;;;;5035032;28;20037;-80
2022/12/12 01:03:19;;;;;;;51.58;42.97;;;;;;;;;;5027660;28;20024;-77
2022/12/12 01:05:47;;;;;;;55.83;45.10;;;;;;;;;;5029744;28;20068;-78
2022/12/12 01:08:13;;;;;;;47.97;39.55;;;;;;;;;;5024788;28;20047;-78
2022/12/12 01:10:38;;;;;;;51.13;40.00;;;;;;;;;;5015603;28;20452;-77
2022/12/12 01:13:04;;;;;;;42.50;33.47;;;;;;;;;;5035293;28;20032;-77
2022/12/12 01:15:29;;;;;;;52.53;42.30;;;;;;;;;;5034807;28;20025;-77
2022/12/12 01:17:55;;;;;;;52.17;43.13;;;;;;;;;;5030280;28;20025;-76
2022/12/12 01:20:22;;;;;;;48.53;37.28;;;;;;;;;;5027291;28;20025;-77
2022/12/12 01:22:48;;;;;;;48.22;37.20;;;;;;;;;;5035094;28;20084;-78
2022/12/12 01:25:15;;;;;;;50.40;38.40;;;;;;;;;;5032178;28;20040;-77
2022/12/12 01:27:41;;;;;;;50.13;40.13;;;;;;;;;;5030939;28;20495;-80
2022/12/12 01:30:07;;;;;;;45.42;36.38;;;;;;;;;;5036602;28;20028;-77
2022/12/12 01:32:32;;;;;;;44.20;35.92;;;;;;;;;;5029922;28;20017;-78
2022/12/12 01:34:58;;;;;;;47.78;40.00;;;;;;;;;;5025901;28;20029;-77
2022/12/12 01:37:23;;;;;;;54.78;44.58;;;;;;;;;;5034817;28;20112;-76
2022/12/12 01:39:49;;;;;;;51.88;41.13;;;;;;;;;;5028459;28;20399;-77
2022/12/12 01:42:16;;;;;;;49.55;39.30;;;;;;;;;;5011497;28;20391;-77
2022/12/12 01:44:41;;;;;;;44.92;36.45;;;;;;;;;;5031491;28;20100;-78
2022/12/12 01:47:07;;;;;;;49.45;39.05;;;;;;;;;;5026000;28;20727;-79
2022/12/12 01:49:33;;;;;;;46.33;35.67;;;;;;;;;;5024637;28;20025;-77
2022/12/12 01:52:01;;;;;;;49.55;41.28;;;;;;;;;;5025497;28;20389;-78
2022/12/12 01:54:30;;;;;;;58.55;48.67;;;;;;;;;;5032278;28;20339;-81
2022/12/12 01:56:57;;;;;;;51.35;41.30;;;;;;;;;;5033154;28;20068;-77
2022/12/12 01:59:24;;;;;;;47.42;37.85;;;;;;;;;;5035835;28;20029;-78
2022/12/12 02:01:50;;;;;;;42.58;33.35;;;;;;;;;;5034553;28;20052;-78
2022/12/12 02:04:16;;;;;;;47.55;37.92;;;;;;;;;;5025342;28;20040;-76
2022/12/12 02:06:42;;;;;;;46.28;38.22;;;;;;;;;;5025967;28;20052;-76
2022/12/12 02:09:08;;;;;;;41.53;35.38;;;;;;;;;;5032497;28;20045;-78
2022/12/12 02:11:35;;;;;;;54.55;44.28;;;;;;;;;;5033988;28;20045;-80
2022/12/12 02:14:00;;;;;;;47.45;38.65;;;;;;;;;;5037547;28;20144;-78
2022/12/12 02:16:36;;;;;;;48.83;38.95;;;;;;;;;;5036685;28;20527;-78
2022/12/12 02:19:20;;;;;;;44.67;35.83;;;;;;;;;;5030628;28;20048;-78
2022/12/12 02:21:45;;;;;;;45.35;36.75;;;;;;;;;;5034822;28;20025;-78
2022/12/12 02:24:29;;;;;;;47.20;35.67;;;;;;;;;;5037688;28;20100;-78
2022/12/12 02:27:04;;;;;;;49.17;37.40;;;;;;;;;;5027641;28;20033;-77
2022/12/12 02:29:29;;;;;;;46.47;36.47;;;;;;;;;;5035092;28;20028;-79
2022/12/12 02:31:59;;;;;;;45.65;36.08;;;;;;;;;;5037432;28;20029;-77
2022/12/12 02:34:24;;;;;;;;;;;;;;;;;;5029877;28;20052;-77
2022/12/12 02:36:49;;;;;;;39.67;29.50;;;;;;;;;;5038832;28;19971;-79
2022/12/12 02:39:47;;;;;;;52.08;38.38;;;;;;;;;;5039208;28;20025;-78
2022/12/12 02:42:18;;;;;;;46.95;38.22;;;;;;;;;;4998756;28;20041;-79
2022/12/12 02:45:06;;;;;;;42.15;31.92;;;;;;;;;;5040192;28;20095;-80
2022/12/12 02:47:34;;;;;;;49.20;37.83;;;;;;;;;;5028748;28;20039;-77
2022/12/12 02:50:03;;;;;;;49.88;37.65;;;;;;;;;;5040121;28;20833;-78
2022/12/12 02:52:29;;;;;;;51.70;40.15;;;;;;;;;;5036391;28;20021;-80
2022/12/12 02:54:54;;;;;;;48.90;37.42;;;;;;;;;;5029671;28;20043;-77
2022/12/12 02:57:21;;;;;;;49.58;37.63;;;;;;;;;;5036909;28;20040;-77
2022/12/12 03:00:07;;;;;;;53.85;38.85;;;;;;;;;;5037935;28;20036;-78
2022/12/12 03:02:32;;;;;;;46.10;35.25;;;;;;;;;;5019007;28;20025;-76
2022/12/12 03:07:51;;;;;;;48.10;34.95;;;;;;;;;;5031620;28;20388;-77
2022/12/12 03:10:28;;;;;;;48.60;36.15;;;;;;;;;;5023049;28;20049;-78
2022/12/12 03:13:12;;;;;;;46.25;36.63;;;;;;;;;;5037706;28;20029;-77
2022/12/12 03:15:40;;;;;;;49.28;37.40;;;;;;;;;;5034481;28;20600;-77
2022/12/12 03:18:11;;;;;;;47.70;35.28;;;;;;;;;;5036180;28;20024;-77
2022/12/12 03:20:46;;;;;;;42.08;32.90;;;;;;;;;;5032468;28;20084;-78
2022/12/12 03:23:17;;;;;;;47.25;38.60;;;;;;;;;;5034846;28;20032;-77
2022/12/12 03:25:45;;;;;;;49.28;38.97;;;;;;;;;;5025217;28;20456;-77
2022/12/12 03:28:17;;;;;;;49.42;36.47;;;;;;;;;;5034150;28;20036;-81
2022/12/12 03:30:48;;;;;;;53.15;40.20;;;;;;;;;;5032897;28;20033;-78
2022/12/12 03:33:24;;;;;;;69.90;49.92;;;;;;;;;;5027697;28;20033;-77
2022/12/12 03:35:55;;;;;;;54.38;39.47;;;;;;;;;;5028889;28;20203;-78
2022/12/12 03:38:23;;;;;;;48.00;36.42;;;;;;;;;;5031245;28;20025;-79
2022/12/12 03:40:51;;;;;;;45.53;32.95;;;;;;;;;;5032182;28;20025;-77
2022/12/12 03:43:31;;;;;;;45.25;34.10;;;;;;;;;;5032467;28;20685;-78
2022/12/12 03:46:06;;;;;;;45.83;35.03;;;;;;;;;;5037881;28;20080;-77
2022/12/12 03:48:42;;;;;;;87.68;63.75;;;;;;;;;;5037233;28;20032;-76
2022/12/12 03:51:11;;;;;;;100.05;71.78;;;;;;;;;;5037280;28;20721;-77
2022/12/12 03:53:43;;;;;;;66.32;50.60;;;;;;;;;;5035113;28;20052;-78
2022/12/12 03:56:11;;;;;;;67.85;50.45;;;;;;;;;;5039292;28;20044;-78
2022/12/12 03:58:36;;;;;;;70.13;51.47;;;;;;;;;;5030519;28;20059;-78
2022/12/12 04:01:06;;;;;;;56.63;45.35;;;;;;;;;;5032757;28;20060;-80
2022/12/12 04:03:31;;;;;;;;;;;;;;;;;;5037950;28;20044;-79
2022/12/12 04:14:27;;;;;;;300.15;199.73;;;;;;;;;;5036140;28;20407;-78
2022/12/12 04:16:59;;;;;;;172.57;114.22;;;;;;;;;;5037289;28;20048;-80
2022/12/12 04:25:25;;;;;;;98.85;82.70;;;;;;;;;;5037420;28;20032;-80
2022/12/12 04:27:51;;;;;;;64.20;50.90;;;;;;;;;;5031450;28;21326;-77
2022/12/12 04:30:16;;;;;;;59.90;48.97;;;;;;;;;;5028510;28;20046;-77
2022/12/12 04:32:44;;;;;;;60.97;50.95;;;;;;;;;;5027197;28;20419;-79
2022/12/12 04:35:14;;;;;;;59.80;51.90;;;;;;;;;;5037685;28;20025;-78
2022/12/12 04:37:45;;;;;;;51.00;40.45;;;;;;;;;;5036080;28;20037;-80
2022/12/12 04:40:12;;;;;;;122.60;96.43;;;;;;;;;;5036542;28;20419;-77
2022/12/12 04:42:41;;;;;;;125.18;93.38;;;;;;;;;;5035450;28;20048;-78
2022/12/12 04:45:09;;;;;;;61.10;46.53;;;;;;;;;;5036470;28;20044;-79
2022/12/12 04:47:37;;;;;;;64.30;46.65;;;;;;;;;;5036293;28;20063;-78
2022/12/12 04:50:03;;;;;;;50.15;38.40;;;;;;;;;;5027954;28;20028;-77
2022/12/12 04:52:30;;;;;;;50.67;38.50;;;;;;;;;;5032868;28;20360;-76
2022/12/12 04:54:58;;;;;;;46.38;36.22;;;;;;;;;;5034313;28;20044;-79
2022/12/12 04:57:26;;;;;;;62.13;48.88;;;;;;;;;;5021157;28;20602;-78
2022/12/12 04:59:51;;;;;;;66.00;53.40;;;;;;;;;;5028014;28;20155;-77
2022/12/12 05:02:31;;;;;;;98.15;80.72;;;;;;;;;;5023790;28;20124;-80
2022/12/12 05:05:00;;;;;;;59.20;48.35;;;;;;;;;;5020160;28;20021;-78
2022/12/12 05:07:32;;;;;;;77.13;58.45;;;;;;;;;;5031110;28;20077;-77
2022/12/12 05:09:58;;;;;;;154.45;116.45;;;;;;;;;;5035443;28;20081;-77
2022/12/12 05:12:24;;;;;;;111.07;85.80;;;;;;;;;;5036520;28;20028;-77
2022/12/12 05:14:49;;;;;;;57.63;45.47;;;;;;;;;;5036469;28;20344;-77
2022/12/12 05:17:17;;;;;;;98.43;73.07;;;;;;;;;;5037339;28;20360;-77
2022/12/12 05:19:42;;;;;;;78.85;63.97;;;;;;;;;;5037429;28;20490;-78
2022/12/12 05:22:07;;;;;;;89.70;72.95;;;;;;;;;;5035330;28;20053;-76
2022/12/12 05:24:33;;;;;;;52.42;41.40;;;;;;;;;;5037561;28;20733;-77
2022/12/12 05:26:58;;;;;;;61.25;49.00;;;;;;;;;;5027300;28;20479;-78
2022/12/12 05:29:23;;;;;;;90.93;63.92;;;;;;;;;;5030982;28;20447;-77
2022/12/12 05:31:49;;;;;;;130.27;96.10;;;;;;;;;;5032308;28;20120;-76
2022/12/12 05:34:14;;;;;;;90.32;67.07;;;;;;;;;;5037922;28;20095;-77
2022/12/12 05:36:39;;;;;;;56.75;44.25;;;;;;;;;;5035977;28;20044;-76
2022/12/12 05:39:05;;;;;;;65.03;48.40;;;;;;;;;;5034275;28;20112;-77
2022/12/12 05:41:30;;;;;;;64.88;50.05;;;;;;;;;;5034346;28;20094;-77
2022/12/12 05:43:55;;;;;;;65.25;51.70;;;;;;;;;;5036434;28;20528;-81
2022/12/12 05:46:21;;;;;;;66.90;51.70;;;;;;;;;;5037204;28;20029;-78
2022/12/12 05:48:49;;;;;;;61.15;45.38;;;;;;;;;;5029353;28;20037;-80
2022/12/12 05:51:15;;;;;;;58.83;47.25;;;;;;;;;;5031990;28;20634;-75
2022/12/12 05:53:40;;;;;;;61.65;48.30;;;;;;;;;;5027324;28;20100;-76
2022/12/12 05:56:06;;;;;;;70.70;55.03;;;;;;;;;;5038899;28;20025;-81
2022/12/12 05:58:31;;;;;;;68.03;51.00;;;;;;;;;;5037422;28;20033;-77
2022/12/12 06:00:56;;;;;;;61.08;47.72;;;;;;;;;;5034267;28;20028;-76
2022/12/12 06:03:22;;;;;;;76.15;59.85;;;;;;;;;;5019122;28;20080;-76
2022/12/12 06:05:47;;;;;;;73.85;59.42;;;;;;;;;;5019248;28;20043;-76
2022/12/12 06:08:12;;;;;;;80.60;62.03;;;;;;;;;;5027348;28;20119;-75
2022/12/12 06:10:38;;;;;;;64.32;49.78;;;;;;;;;;5024547;28;20041;-77
2022/12/12 06:13:03;;;;;;;68.00;54.33;;;;;;;;;;5024875;28;20040;-76
2022/12/12 06:15:28;;;;;;;64.40;52.83;;;;;;;;;;5026934;28;20028;-78
2022/12/12 06:17:54;;;;;;;87.00;69.90;;;;;;;;;;5032692;28;20368;-77
2022/12/12 06:20:19;;;;;;;95.63;77.15;;;;;;;;;;5032166;28;20424;-75
2022/12/12 06:22:45;;;;;;;62.17;49.65;;;;;;;;;;5032802;28;20045;-80
2022/12/12 06:25:10;;;;;;;54.00;43.38;;;;;;;;;;5025747;28;20486;-77
2022/12/12 06:27:35;;;;;;;44.63;35.78;;;;;;;;;;5024229;28;20025;-80
2022/12/12 06:30:01;;;;;;;44.13;35.83;;;;;;;;;;5024375;28;20104;-77
2022/12/12 06:32:27;;;;;;;53.20;45.80;;;;;;;;;;5025651;28;20025;-76
2022/12/12 06:34:52;;;;;;;54.63;44.58;;;;;;;;;;5027116;28;20086;-76
2022/12/12 06:37:17;;;;;;;57.92;49.40;;;;;;;;;;5025575;28;20036;-81
2022/12/12 06:39:43;;;;;;;52.92;41.83;;;;;;;;;;5026211;28;20021;-76
2022/12/12 06:42:08;;;;;;;54.75;43.70;;;;;;;;;;5037172;28;20022;-75
2022/12/12 06:44:33;;;;;;;44.65;37.25;;;;;;;;;;5040553;28;20041;-79
2022/12/12 06:46:59;;;;;;;50.95;40.25;;;;;;;;;;5041197;28;20439;-77
2022/12/12 06:49:24;;;;;;;44.50;35.38;;;;;;;;;;5031096;28;20029;-77
2022/12/12 06:51:50;;;;;;;73.78;57.28;;;;;;;;;;5035347;28;20144;-75
2022/12/12 06:54:16;;;;;;;55.08;41.20;;;;;;;;;;5038894;28;20021;-75
2022/12/12 06:56:42;;;;;;;52.00;42.25;;;;;;;;;;5037193;28;20386;-75
2022/12/12 06:59:08;;;;;;;43.50;36.17;;;;;;;;;;5039972;28;20021;-76
2022/12/12 07:01:33;;;;;;;62.58;48.70;;;;;;;;;;5037578;28;20055;-78
2022/12/12 07:03:59;;;;;;;53.20;40.50;;;;;;;;;;5038016;28;20432;-75
2022/12/12 07:06:24;;;;;;;50.67;41.63;;;;;;;;;;5039482;28;20337;-75
2022/12/12 07:08:50;;;;;;;47.63;38.60;;;;;;;;;;5037766;28;20036;-75
2022/12/12 07:11:17;;;;;;;49.08;38.40;;;;;;;;;;5038317;28;20084;-76
2022/12/12 07:13:43;;;;;;;57.97;45.85;;;;;;;;;;5038474;28;20052;-78
2022/12/12 07:16:08;;;;;;;66.07;57.17;;;;;;;;;;5036989;28;20036;-75
2022/12/12 07:18:34;;;;;;;55.67;44.08;;;;;;;;;;5036585;28;20048;-77
2022/12/12 07:21:02;;;;;;;56.00;43.17;;;;;;;;;;5036680;28;20029;-74
2022/12/12 07:23:27;;;;;;;57.28;50.47;;;;;;;;;;5036860;28;20064;-76
2022/12/12 07:25:52;;;;;;;46.65;38.63;;;;;;;;;;5037725;28;20351;-78
2022/12/12 07:28:18;;;;;;;45.35;36.38;;;;;;;;;;5038925;28;20065;-75
2022/12/12 07:30:44;;;;;;;43.40;35.40;;;;;;;;;;5040251;28;20036;-76
2022/12/12 07:33:10;;;;;;;86.15;68.40;;;;;;;;;;5037401;28;20100;-76
2022/12/12 07:35:36;;;;;;;73.82;55.63;;;;;;;;;;5037819;28;20032;-76
2022/12/12 07:38:02;;;;;;;58.47;46.65;;;;;;;;;;5037538;28;20028;-78
2022/12/12 07:40:27;;;;;;;54.22;44.80;;;;;;;;;;5021526;28;20433;-75
2022/12/12 07:42:53;;;;;;;56.15;43.70;;;;;;;;;;5038890;28;20108;-75
2022/12/12 07:45:18;;;;;;;57.20;47.50;;;;;;;;;;5039451;28;20033;-75
2022/12/12 07:47:43;;;;;;;64.38;52.60;;;;;;;;;;5038588;28;20032;-76
2022/12/12 07:50:09;;;;;;;66.07;53.58;;;;;;;;;;5037055;28;20041;-75
2022/12/12 07:52:35;;;;;;;52.28;45.00;;;;;;;;;;5039299;28;20047;-78
2022/12/12 07:55:01;;;;;;;50.10;39.50;;;;;;;;;;5038578;28;20016;-76
2022/12/12 07:57:27;;;;;;;59.50;51.40;;;;;;;;;;5038536;28;20036;-78
2022/12/12 07:59:52;;;;;;;47.88;37.00;;;;;;;;;;5038975;28;20021;-75
2022/12/12 08:02:18;;;;;;;75.35;66.53;;;;;;;;;;5038264;28;20031;-76
2022/12/12 08:04:43;;;;;;;44.80;38.17;;;;;;;;;;5037366;28;20061;-75
2022/12/12 08:07:08;;;;;;;41.80;35.08;;;;;;;;;;5035263;28;20052;-75
2022/12/12 08:09:34;;;;;;;41.30;36.78;;;;;;;;;;5037676;28;20020;-76
2022/12/12 08:12:00;;;;;;;51.22;45.65;;;;;;;;;;5037512;28;20460;-75
2022/12/12 08:14:25;;;;;;;40.50;35.92;;;;;;;;;;5036391;28;20031;-75
2022/12/12 08:16:51;;;;;;;49.38;41.28;;;;;;;;;;5037362;28;20029;-78
2022/12/12 08:19:16;;;;;;;62.50;51.67;;;;;;;;;;5037558;28;20147;-75
2022/12/12 08:21:42;;;;;;;49.97;41.38;;;;;;;;;;5038030;28;20021;-78
2022/12/12 08:24:10;;;;;;;45.70;39.05;;;;;;;;;;5036772;28;20039;-78
2022/12/12 08:26:35;;;;;;;64.85;54.10;;;;;;;;;;5037656;28;20032;-77
2022/12/12 08:29:00;;;;;;;48.05;41.53;;;;;;;;;;5035881;28;20021;-76
2022/12/12 08:31:26;;;;;;;44.20;36.53;;;;;;;;;;5037938;28;20025;-78
2022/12/12 08:33:52;;;;;;;59.22;47.58;;;;;;;;;;5038386;28;20095;-76
2022/12/12 08:36:21;;;;;;;90.53;71.40;;;;;;;;;;5035903;28;20026;-76
2022/12/12 08:38:47;;;;;;;;;;;;;;;;;;5037449;28;20399;-78
2022/12/12 08:41:13;;;;;;;64.33;53.83;;;;;;;;;;5034345;28;20361;-76
2022/12/12 08:43:39;;;;;;;53.38;46.35;;;;;;;;;;5036472;28;20037;-76
2022/12/12 08:46:05;;;;;;;50.35;44.38;;;;;;;;;;5037581;28;20056;-75
2022/12/12 08:48:31;;;;;;;70.18;58.88;;;;;;;;;;5035979;28;20052;-76
2022/12/12 08:50:57;;;;;;;65.28;52.13;;;;;;;;;;5037383;28;20052;-77
2022/12/12 08:53:22;;;;;;;69.82;59.90;;;;;;;;;;5036320;28;20064;-76
2022/12/12 08:55:48;;;;;;;79.57;67.32;;;;;;;;;;5036664;28;20060;-77
2022/12/12 08:58:13;;;;;;;52.03;44.03;;;;;;;;;;5037220;28;21008;-75
2022/12/12 09:00:38;;;;;;;64.05;54.83;;;;;;;;;;5035720;28;20025;-76
2022/12/12 09:03:04;;;;;;;40.35;35.92;;;;;;;;;;5037671;28;20029;-75
2022/12/12 09:05:29;;;;;;;64.13;54.67;;;;;;;;;;5035635;28;20053;-76
2022/12/12 09:07:54;;;;;;;62.50;54.08;;;;;;;;;;5038526;28;20343;-75
2022/12/12 09:10:20;;;;;;;72.95;64.93;;;;;;;;;;5036374;28;20126;-76
2022/12/12 09:12:45;;;;;;;54.72;47.13;;;;;;;;;;5033972;28;20026;-76
2022/12/12 09:15:11;;;;;;;52.70;46.17;;;;;;;;;;5034426;28;20060;-77
2022/12/12 09:17:36;;;;;;;51.40;45.90;;;;;;;;;;5037868;28;20325;-76
2022/12/12 09:20:02;;;;;;;49.65;43.60;;;;;;;;;;5039162;28;20148;-78
2022/12/12 09:22:27;;;;;;;41.83;37.17;;;;;;;;;;5039079;28;20121;-75
2022/12/12 09:24:53;;;;;;;48.60;42.97;;;;;;;;;;5039354;28;20048;-77
2022/12/12 09:27:18;;;;;;;38.00;32.50;;;;;;;;;;5041323;28;20029;-76
2022/12/12 09:29:43;;;;;;;39.80;35.55;;;;;;;;;;5041682;28;20484;-76
2022/12/12 09:32:09;;;;;;;41.78;37.28;;;;;;;;;;5040191;28;20029;-76
2022/12/12 09:34:36;;;;;;;38.17;33.53;;;;;;;;;;5041175;28;20017;-78
2022/12/12 09:37:01;;;;;;;61.72;47.65;;;;;;;;;;5038194;28;20037;-75
2022/12/12 09:39:26;;;;;;;61.58;51.13;;;;;;;;;;5038057;28;20040;-78
2022/12/12 09:41:52;;;;;;;79.78;68.32;;;;;;;;;;5039973;28;20116;-75
2022/12/12 09:44:19;;;;;;;45.13;40.15;;;;;;;;;;5040203;28;20083;-75
2022/12/12 09:46:56;;;;;;;61.50;53.13;;;;;;;;;;5037742;28;20047;-76
2022/12/12 09:49:40;;;;;;;60.88;51.78;;;;;;;;;;5042286;28;20355;-75
2022/12/12 09:52:06;;;;;;;85.55;70.50;;;;;;;;;;5039854;28;20037;-75
2022/12/12 09:54:32;;;;;;;77.22;64.18;;;;;;;;;;5040115;28;20070;-81
2022/12/12 09:57:00;;;;;;;60.38;50.00;;;;;;;;;;5038851;28;20456;-75
2022/12/12 09:59:41;;;;;;;79.65;65.93;;;;;;;;;;5040956;28;20033;-78
2022/12/12 10:02:25;;;;;;;78.15;66.45;;;;;;;;;;5039641;28;20029;-76
2022/12/12 10:04:50;;;;;;;67.20;53.38;;;;;;;;;;5039667;28;20021;-76
2022/12/12 10:07:23;;;;;;;85.22;62.70;;;;;;;;;;5040396;28;20146;-77
2022/12/12 10:10:01;;;;;;;67.13;52.92;;;;;;;;;;5039964;28;20037;-76
2022/12/12 10:12:27;;;;;;;63.03;43.97;;;;;;;;;;5040367;28;20144;-76
2022/12/12 10:15:03;;;;;;;48.28;40.70;;;;;;;;;;5040149;28;20037;-76
2022/12/12 10:17:31;;;;;;;45.17;36.00;;;;;;;;;;5037193;28;20410;-79
2022/12/12 10:19:59;;;;;;;51.40;37.53;;;;;;;;;;5039629;28;20063;-78
2022/12/12 10:22:31;;;;;;;100.47;77.80;;;;;;;;;;5035905;28;20025;-75
2022/12/12 10:25:14;;;;;;;61.50;47.03;;;;;;;;;;5039292;28;20921;-76
2022/12/12 10:27:39;;;;;;;50.10;43.13;;;;;;;;;;5039372;28;20033;-76
2022/12/12 10:30:15;;;;;;;42.15;33.75;;;;;;;;;;5039269;28;20030;-76
2022/12/12 10:32:41;;;;;;;36.38;31.75;;;;;;;;;;5038815;28;20016;-76
2022/12/12 10:35:24;;;;;;;41.40;33.45;;;;;;;;;;5040812;28;20086;-75
2022/12/12 10:38:03;;;;;;;34.85;28.50;;;;;;;;;;5038993;28;20037;-76
2022/12/12 10:40:43;;;;;;;31.67;27.40;;;;;;;;;;5040389;28;20036;-78
2022/12/12 10:43:27;;;;;;;29.50;25.33;;;;;;;;;;5038578;28;20037;-76
2022/12/12 10:45:52;;;;;;;46.88;34.13;;;;;;;;;;5040276;28;20111;-76
2022/12/12 10:48:17;;;;;;;46.70;35.42;;;;;;;;;;5038350;28;20112;-78
2022/12/12 10:50:44;;;;;;;39.55;31.30;;;;;;;;;;5038880;28;20024;-77
2022/12/12 10:53:10;;;;;;;34.92;31.23;;;;;;;;;;5038523;28;20507;-79
2022/12/12 10:55:35;;;;;;;42.08;32.67;;;;;;;;;;5038758;28;20188;-75
2022/12/12 10:58:02;;;;;;;39.78;34.03;;;;;;;;;;5040122;28;20028;-76
2022/12/12 11:00:54;;;;;;;51.40;38.45;;;;;;;;;;5037870;28;20107;-77
2022/12/12 11:03:23;;;;;;;50.55;40.28;;;;;;;;;;5034620;28;20052;-76
2022/12/12 11:05:49;;;;;;;56.13;45.60;;;;;;;;;;5039562;28;20035;-78
2022/12/12 11:08:20;;;;;;;54.53;45.83;;;;;;;;;;5038697;28;20038;-77
2022/12/12 11:10:56;;;;;;;65.03;53.50;;;;;;;;;;5021466;28;21032;-77
2022/12/12 11:13:22;;;;;;;51.20;45.58;;;;;;;;;;5038861;28;20033;-76
2022/12/12 11:15:55;;;;;;;50.70;45.38;;;;;;;;;;5037241;28;20047;-77
2022/12/12 11:18:21;;;;;;;39.13;35.22;;;;;;;;;;5038224;28;20041;-77
2022/12/12 11:20:51;;;;;;;47.63;38.85;;;;;;;;;;5039078;28;20033;-77
2022/12/12 11:23:16;;;;;;;;;;;;;;;;;;5038835;28;20158;-77
2022/12/12 11:25:42;;;;;;;93.77;83.57;;;;;;;;;;5038692;28;20011;-78
2022/12/12 11:28:13;;;;;;;81.90;73.40;;;;;;;;;;5036630;28;20372;-77
2022/12/12 11:30:40;;;;;;;95.30;85.13;;;;;;;;;;5039520;28;20082;-78
2022/12/12 11:33:07;;;;;;;167.02;131.98;;;;;;;;;;5036489;28;20121;-77
2022/12/12 11:35:34;;;;;;;106.30;83.78;;;;;;;;;;5038239;28;20094;-77
2022/12/12 11:38:02;;;;;;;68.47;56.67;;;;;;;;;;5036307;28;20075;-79
2022/12/12 11:40:29;;;;;;;72.80;57.03;;;;;;;;;;5038263;28;20151;-76
2022/12/12 11:43:13;;;;;;;51.40;44.20;;;;;;;;;;5035005;28;20029;-77
2022/12/12 11:45:38;;;;;;;55.13;49.10;;;;;;;;;;5036504;28;20107;-79
2022/12/12 11:48:24;;;;;;;45.72;39.40;;;;;;;;;;5037266;28;20108;-77
2022/12/12 11:50:49;;;;;;;36.10;32.17;;;;;;;;;;5036847;28;20103;-77
2022/12/12 11:53:14;;;;;;;38.78;34.58;;;;;;;;;;5034180;28;20037;-80
2022/12/12 11:55:46;;;;;;;39.72;35.67;;;;;;;;;;5036813;28;20037;-78
2022/12/12 11:58:24;;;;;;;45.80;41.10;;;;;;;;;;5037813;28;20032;-78
2022/12/12 12:00:55;;;;;;;55.30;47.60;;;;;;;;;;5036149;28;20029;-77
2022/12/12 12:03:20;;;;;;;73.18;42.97;;;;;;;;;;5020857;28;20044;-77
2022/12/12 12:05:57;;;;;;;65.60;46.50;;;;;;;;;;5037215;28;20032;-76
2022/12/12 12:08:26;;;;;;;69.13;49.40;;;;;;;;;;5036601;28;20424;-80
2022/12/12 12:11:10;;;;;;;38.47;34.38;;;;;;;;;;5038053;28;20092;-77
2022/12/12 12:13:35;;;;;;;51.47;45.85;;;;;;;;;;5039459;28;20458;-77
2022/12/12 12:16:14;;;;;;;63.10;54.92;;;;;;;;;;5039157;28;20065;-77
2022/12/12 12:19:01;;;;;;;65.15;57.55;;;;;;;;;;5037961;28;20021;-77
2022/12/12 12:21:31;;;;;;;61.83;53.53;;;;;;;;;;5036114;28;20039;-77
2022/12/12 12:23:57;;;;;;;56.70;48.20;;;;;;;;;;5039176;28;20318;-76
2022/12/12 12:26:22;;;;;;;67.00;52.92;;;;;;;;;;5038706;28;20031;-78
2022/12/12 12:28:53;;;;;;;113.90;98.05;;;;;;;;;;5038654;28;20040;-77
2022/12/12 12:31:37;;;;;;;91.15;77.93;;;;;;;;;;5037316;28;20032;-76
2022/12/12 12:34:08;;;;;;;89.75;79.88;;;;;;;;;;5036994;28;20022;-76
2022/12/12 12:36:42;;;;;;;87.60;76.68;;;;;;;;;;5037859;28;20120;-76
2022/12/12 12:39:16;;;;;;;109.03;90.38;;;;;;;;;;5038571;28;20028;-78
2022/12/12 12:41:52;;;;;;;65.45;57.90;;;;;;;;;;5037621;28;20435;-76
2022/12/12 12:44:26;;;;;;;87.03;76.32;;;;;;;;;;5038608;28;20029;-76
2022/12/12 12:46:51;;;;;;;66.22;55.05;;;;;;;;;;5038938;28;20032;-79
2022/12/12 12:49:20;;;;;;;76.53;67.88;;;;;;;;;;5036034;28;20033;-77
2022/12/12 12:51:59;;;;;;;65.10;58.00;;;;;;;;;;5039083;28;20029;-79
2022/12/12 12:54:37;;;;;;;38.05;34.00;;;;;;;;;;5037669;28;20398;-75
2022/12/12 12:57:16;;;;;;;34.10;30.42;;;;;;;;;;5039831;28;20045;-76
2022/12/12 12:59:44;;;;;;;41.05;36.05;;;;;;;;;;5038495;28;20025;-77
2022/12/12 13:02:29;;;;;;;47.65;42.22;;;;;;;;;;5035989;28;20025;-76
2022/12/12 13:05:08;;;;;;;32.15;29.00;;;;;;;;;;5033333;28;20124;-76
2022/12/12 13:07:51;;;;;;;29.83;26.85;;;;;;;;;;5039379;28;20041;-79
2022/12/12 13:10:19;;;;;;;64.30;51.03;;;;;;;;;;5037560;28;20492;-84
2022/12/12 13:12:48;;;;;;;55.03;45.10;;;;;;;;;;5021900;28;20032;-77
2022/12/12 13:15:14;;;;;;;39.97;35.78;;;;;;;;;;5018414;28;20035;-76
2022/12/12 13:17:45;;;;;;;47.70;39.97;;;;;;;;;;5021010;28;20044;-77
2022/12/12 13:20:15;;;;;;;56.53;48.25;;;;;;;;;;5020135;28;20112;-76
2022/12/12 13:22:41;;;;;;;42.83;38.50;;;;;;;;;;5020460;28;20061;-76
2022/12/12 13:25:06;;;;;;;39.78;35.58;;;;;;;;;;5021841;28;20067;-75
2022/12/12 13:27:35;;;;;;;37.42;33.55;;;;;;;;;;5021025;28;20096;-77
2022/12/12 13:30:03;;;;;;;52.42;45.63;;;;;;;;;;5022161;28;20024;-80
2022/12/12 13:32:29;;;;;;;62.83;55.90;;;;;;;;;;5021942;28;20053;-77
2022/12/12 13:34:56;;;;;;;75.95;61.13;;;;;;;;;;5022343;28;20021;-78
2022/12/12 13:37:22;;;;;;;72.00;64.10;;;;;;;;;;5022446;28;20033;-78
2022/12/12 13:40:03;;;;;;;72.85;64.28;;;;;;;;;;5022401;28;20048;-77
2022/12/12 13:42:49;;;;;;;62.45;55.80;;;;;;;;;;5024066;28;20436;-78
2022/12/12 13:45:33;;;;;;;96.97;64.97;;;;;;;;;;5022028;28;20037;-77
2022/12/12 13:48:03;;;;;;;77.40;65.55;;;;;;;;;;5021929;28;20449;-78
2022/12/12 13:50:28;;;;;;;;;;;;;;;;;;5020526;28;20063;-78
2022/12/12 13:53:06;;;;;;;81.10;65.28;;;;;;;;;;5022009;28;19916;-77
2022/12/12 13:55:34;;;;;;;131.90;98.70;;;;;;;;;;5020310;28;20036;-80
2022/12/12 13:58:01;;;;;;;244.77;200.02;;;;;;;;;;5019333;28;20034;-77
2022/12/12 14:00:26;;;;;;;146.73;125.85;;;;;;;;;;5020768;28;20048;-78
2022/12/12 14:02:54;;;;;;;118.32;105.38;;;;;;;;;;5021158;28;20420;-77
2022/12/12 14:05:22;;;;;;;115.03;102.38;;;;;;;;;;5020980;28;20452;-75
2022/12/12 14:07:49;;;;;;;72.05;60.92;;;;;;;;;;5023506;28;20029;-76
2022/12/12 14:10:22;;;;;;;66.63;58.20;;;;;;;;;;5024706;28;20190;-75
2022/12/12 14:12:48;;;;;;;112.07;93.35;;;;;;;;;;5023749;28;20646;-76
2022/12/12 14:15:18;;;;;;;73.38;62.08;;;;;;;;;;5027961;28;20109;-80
2022/12/12 14:17:51;;;;;;;75.97;67.65;;;;;;;;;;5033657;28;20117;-76
2022/12/12 14:20:23;;;;;;;217.48;178.00;;;;;;;;;;5032774;28;20029;-77
2022/12/12 14:22:48;;;;;;;114.05;101.60;;;;;;;;;;5040192;28;20033;-78
2022/12/12 14:25:14;;;;;;;90.55;81.15;;;;;;;;;;5023248;28;20034;-76
2022/12/12 14:27:48;;;;;;;72.22;64.38;;;;;;;;;;5029749;28;20029;-76
2022/12/12 14:30:20;;;;;;;66.90;59.60;;;;;;;;;;5027447;28;20112;-79
2022/12/12 14:33:17;;;;;;;58.45;49.30;;;;;;;;;;5029500;28;20039;-77
2022/12/12 14:35:51;;;;;;;71.72;64.00;;;;;;;;;;5007004;28;20039;-77
2022/12/12 14:38:29;;;;;;;88.65;79.07;;;;;;;;;;5022406;28;20404;-79
2022/12/12 14:40:57;;;;;;;84.75;76.28;;;;;;;;;;5039334;28;20036;-81
2022/12/12 14:43:29;;;;;;;113.55;101.75;;;;;;;;;;5028186;28;20035;-81